Farmington, WA

1:27 AM PST on December 19, 2014 (GMT -0800)
KWAGARFI3 | Change Station
CLOSE
Current Station
Personal Weather Station
Location: Garfield, WA
Elevation: 2520 ft
Nearby Weather Stations

Elev 2520 ft 47.01 °N, 117.15 °W | Updated 2 minutes ago

Overcast
Overcast
39.2 °F
Feels Like 39 °F
N
0.0
Wind Variable Wind from North
Gusts 0.0 mph

Today
High -- | Low -- °F
--% Chance of Precip.
Yesterday
High -- | Low -- °F
Precip. -- in
7:30 AM 4:00 PM
Waning Crescent, 9% visible
Pressure 29.97 in
Visibility 9.0 miles
Clouds Scattered Clouds 4300 ft
Overcast 7000 ft
Windchill 39 °F
Dew Point 33 °F
Humidity 79%
Rainfall 0.00 in
Snow Depth Not available.
UV 0 out of 12
Pollen .10 out of 12
Air Quality Not available.
Flu Activity Not available.
METAR KPUW 190853Z AUTO 10011KT 9SM -RA SCT043 OVC070 04/02 A2994 RMK AO2 RAB47 SLP148 P0000 60001 T00440017 57005

More Conditions Fewer Conditions

Pressure 29.97 in
Visibility 9.0 miles
Clouds Scattered Clouds 4300 ft
Overcast 7000 ft
Windchill 39 °F
Dew Point 33 °F
Humidity 79%
Rainfall 0.00 in
Snow Depth Not available.
UV 0 out of 12
Pollen .10 out of 12
Air Quality Not available.
Flu Activity Not available.
METAR KPUW 190853Z AUTO 10011KT 9SM -RA SCT043 OVC070 04/02 A2994 RMK AO2 RAB47 SLP148 P0000 60001 T00440017 57005

More Conditions Fewer Conditions

10-Day Weather Forecast

Almanac

Astronomy

Dec. 19, 2014 Rise Set
Actual Time
Civil Twilight
Nautical Twilight
Astronomical Twilight
Moon
Length of Visible Light
Length of Day
Tomorrow will be .
, % of the Moon is Illuminated

Today's Extremes

State Highs State Lows

Community

WunderPhotos

Upload Photos

1,778,966 photos uploaded!

WunderBlogs® & News

Nearby

Air Quality

  Air Quality AQ Index Pollutant
Not available.

Snow Depth

Station Depth Elevation

Earthquake Activity

City Distance Mag. Time & Date
Minimum magnitude displayed is 2.5.

Coastal Water Temperatures

Place Temperature

Nearby Weather Stations